Time;durP1;ratioP1;P1;durP2;ratioP2;P2;SDS_P1;SDS_P2;PMS_P1;PMS_P2;Temp;Humidity;BMP_temperature;BMP_pressure;BME280_temperature;BME280_humidity;BME280_pressure;Samples;Min_cycle;Max_cycle;Signal;HPM_P1;HPM_P2
2022/12/21 00:00:07;;;;;;;4.50;0.50;;;14.30;99.90;14.60;99623.00;;;;341422;28;91032;-93
2022/12/21 00:00:19;;;;;;;4.28;0.40;;;14.30;99.90;14.60;99628.00;;;;342127;28;82773;-94
2022/12/21 00:00:31;;;;;;;4.07;0.60;;;14.30;99.90;14.60;99624.00;;;;343860;28;91413;-94
2022/12/21 00:00:43;;;;;;;3.08;0.90;;;14.30;99.90;14.40;99624.00;;;;344656;28;82403;-94
2022/12/21 00:01:12;;;;;;;3.03;0.90;;;14.30;99.90;14.50;99630.00;;;;342872;28;88690;-94
2022/12/21 00:01:26;;;;;;;4.72;0.88;;;14.30;99.90;14.50;99626.00;;;;343345;28;83389;-93
2022/12/21 00:01:38;;;;;;;3.28;0.68;;;14.20;99.90;14.50;99624.00;;;;341567;28;87823;-94
2022/12/21 00:01:58;;;;;;;4.18;0.90;;;14.30;99.90;14.50;99628.00;;;;341686;28;82275;-93
2022/12/21 00:02:10;;;;;;;3.65;0.82;;;14.30;99.90;14.40;99623.00;;;;342634;28;89816;-94
2022/12/21 00:02:22;;;;;;;3.92;0.68;;;14.30;99.90;14.50;99624.00;;;;341657;28;82405;-95
2022/12/21 00:02:34;;;;;;;3.40;0.75;;;14.30;99.90;14.60;99635.00;;;;345385;28;89479;-94
2022/12/21 00:02:46;;;;;;;4.18;0.73;;;14.30;99.90;14.50;99622.00;;;;343090;28;83329;-95
2022/12/21 00:02:59;;;;;;;4.50;0.70;;;14.30;99.90;14.50;99623.00;;;;341315;28;89725;-94
2022/12/21 00:03:11;;;;;;;3.78;0.43;;;14.30;99.90;14.40;99628.00;;;;342983;28;83991;-94
2022/12/21 00:03:23;;;;;;;3.15;0.55;;;14.30;99.90;14.50;99628.00;;;;341185;28;89494;-94
2022/12/21 00:03:35;;;;;;;3.53;0.68;;;14.30;99.90;14.40;99619.00;;;;344521;28;82451;-94
2022/12/21 00:03:49;;;;;;;4.03;0.70;;;14.30;99.90;14.50;99617.00;;;;345078;28;92018;-94
2022/12/21 00:04:03;;;;;;;3.50;0.68;;;14.30;99.90;14.50;99627.00;;;;343028;28;83358;-94
2022/12/21 00:04:15;;;;;;;4.07;0.65;;;14.30;99.90;14.40;99629.00;;;;342608;28;89701;-94
2022/12/21 00:04:27;;;;;;;3.80;0.80;;;14.30;99.90;14.50;99628.00;;;;344379;28;82524;-95
2022/12/21 00:04:39;;;;;;;3.80;0.85;;;14.30;99.90;14.40;99628.00;;;;344029;28;89046;-94
2022/12/21 00:04:51;;;;;;;3.15;0.70;;;14.30;99.90;14.50;99619.00;;;;344473;28;83697;-94
2022/12/21 00:05:03;;;;;;;4.15;0.70;;;14.30;99.90;14.50;99621.00;;;;342486;28;90343;-94
2022/12/21 00:05:15;;;;;;;5.88;0.77;;;14.30;99.90;14.50;99618.00;;;;344494;28;83141;-94
2022/12/21 00:05:27;;;;;;;5.03;0.70;;;14.30;99.90;14.40;99617.00;;;;344117;28;89772;-94
2022/12/21 00:05:39;;;;;;;4.25;0.77;;;14.30;99.90;14.50;99611.00;;;;345705;28;83263;-94
2022/12/21 00:05:57;;;;;;;3.30;0.90;;;14.30;99.90;14.60;99617.00;;;;342634;28;90908;-94
2022/12/21 00:06:09;;;;;;;3.33;0.75;;;14.30;99.90;14.60;99613.00;;;;343214;28;83438;-95
2022/12/21 00:06:22;;;;;;;2.25;0.60;;;14.30;99.90;14.60;99618.00;;;;344217;28;88241;-94
2022/12/21 00:06:35;;;;;;;2.08;0.60;;;14.30;99.90;14.50;99620.00;;;;343071;28;83490;-95
2022/12/21 00:06:48;;;;;;;1.88;0.60;;;14.30;99.90;14.40;99618.00;;;;342810;28;88269;-94
2022/12/21 00:07:00;;;;;;;8.32;0.70;;;14.30;99.90;14.40;99622.00;;;;342951;28;82552;-93
2022/12/21 00:07:12;;;;;;;8.77;0.75;;;14.30;99.90;14.40;99625.00;;;;342558;28;90140;-95
2022/12/21 00:07:24;;;;;;;3.97;0.75;;;14.30;99.90;14.50;99620.00;;;;341493;28;84626;-93
2022/12/21 00:07:36;;;;;;;2.78;0.85;;;14.30;99.90;14.40;99624.00;;;;341339;28;90030;-94
2022/12/21 00:07:47;;;;;;;3.28;0.82;;;14.20;99.90;14.40;99624.00;;;;344142;28;84811;-95
2022/12/21 00:07:59;;;;;;;6.18;1.00;;;14.20;99.90;14.40;99629.00;;;;343833;28;89942;-94
2022/12/21 00:08:11;;;;;;;6.05;0.73;;;14.20;99.90;14.40;99628.00;;;;341724;28;83485;-94
2022/12/21 00:08:23;;;;;;;7.70;0.75;;;14.20;99.90;14.50;99624.00;;;;342462;28;92371;-94
2022/12/21 00:08:41;;;;;;;6.85;0.75;;;14.30;99.90;14.50;99616.00;;;;344547;28;82509;-93
2022/12/21 00:08:56;;;;;;;4.47;0.80;;;14.30;99.90;14.60;99631.00;;;;344107;28;89967;-94
2022/12/21 00:09:11;;;;;;;3.75;0.60;;;14.30;99.90;14.50;99622.00;;;;343118;28;82458;-94
2022/12/21 00:09:23;;;;;;;2.78;0.45;;;14.30;99.90;14.50;99623.00;;;;342681;28;90450;-94
2022/12/21 00:09:35;;;;;;;2.17;0.50;;;14.30;99.90;14.50;99621.00;;;;343110;28;83439;-96
2022/12/21 00:09:47;;;;;;;2.13;0.50;;;14.30;99.90;14.50;99616.00;;;;342787;28;88824;-94
2022/12/21 00:09:59;;;;;;;2.20;0.52;;;14.30;99.90;14.50;99631.00;;;;340464;28;83307;-95
2022/12/21 00:10:11;;;;;;;3.40;0.80;;;14.30;99.90;14.50;99627.00;;;;342794;28;88917;-94
2022/12/21 00:10:23;;;;;;;4.22;0.82;;;14.30;99.90;14.40;99616.00;;;;342762;28;83819;-94
2022/12/21 00:10:35;;;;;;;5.20;0.77;;;14.30;99.90;14.40;99622.00;;;;342681;28;89873;-94
2022/12/21 00:10:47;;;;;;;5.72;0.85;;;14.30;99.90;14.50;99626.00;;;;341556;28;82568;-95
2022/12/21 00:10:59;;;;;;;3.45;0.60;;;14.30;99.90;14.50;99622.00;;;;340035;28;89299;-94
2022/12/21 00:11:11;;;;;;;3.13;0.60;;;14.20;99.90;14.60;99620.00;;;;344287;28;82564;-94
2022/12/21 00:11:24;;;;;;;3.80;0.47;;;14.30;99.90;14.60;99631.00;;;;341324;28;89636;-94
2022/12/21 00:11:36;;;;;;;4.30;0.60;;;14.30;99.90;14.60;99628.00;;;;343152;28;82483;-95
2022/12/21 00:11:48;;;;;;;3.83;0.68;;;14.30;99.90;14.50;99622.00;;;;339942;28;89701;-95
2022/12/21 00:11:59;;;;;;;3.45;0.60;;;14.30;99.90;14.60;99631.00;;;;343151;28;83339;-94
2022/12/21 00:12:11;;;;;;;3.58;0.70;;;14.30;99.90;14.50;99626.00;;;;342794;28;88308;-94
2022/12/21 00:12:23;;;;;;;5.25;0.90;;;14.30;99.90;14.60;99621.00;;;;342989;28;83351;-94
2022/12/21 00:12:35;;;;;;;5.50;1.08;;;14.30;99.90;14.50;99627.00;;;;339865;28;89941;-94
2022/12/21 00:12:47;;;;;;;5.88;1.45;;;14.30;99.90;14.60;99628.00;;;;340461;28;82608;-95
2022/12/21 00:12:59;;;;;;;5.20;1.48;;;14.30;99.90;14.50;99618.00;;;;341443;28;88412;-95
2022/12/21 00:13:11;;;;;;;4.90;1.08;;;14.30;99.90;14.50;99625.00;;;;343008;28;83885;-94
2022/12/21 00:13:23;;;;;;;5.55;0.65;;;14.30;99.90;14.60;99627.00;;;;342710;28;89300;-95
2022/12/21 00:13:34;;;;;;;5.47;0.70;;;14.30;99.90;14.50;99622.00;;;;340305;28;83230;-95
2022/12/21 00:13:47;;;;;;;3.38;0.77;;;14.30;99.90;14.40;99616.00;;;;342448;28;89254;-94
2022/12/21 00:14:00;;;;;;;4.53;1.35;;;14.30;99.90;14.40;99629.00;;;;341712;28;83350;-95
2022/12/21 00:14:12;;;;;;;3.80;1.23;;;14.30;99.90;14.40;99630.00;;;;343664;28;91279;-95
2022/12/21 00:14:24;;;;;;;3.15;0.82;;;14.30;99.90;14.40;99625.00;;;;340220;28;83429;-95
2022/12/21 00:14:35;;;;;;;4.43;0.70;;;14.30;99.90;14.40;99626.00;;;;344045;28;88679;-95
2022/12/21 00:14:49;;;;;;;5.20;0.88;;;14.30;99.90;14.40;99624.00;;;;342914;28;83452;-95
2022/12/21 00:15:00;;;;;;;4.32;0.85;;;14.30;99.90;14.40;99620.00;;;;341178;28;88681;-94
2022/12/21 00:15:12;;;;;;;3.38;0.80;;;14.30;99.90;14.40;99628.00;;;;344345;28;83462;-94
2022/12/21 00:15:24;;;;;;;4.00;0.60;;;14.30;99.90;14.40;99616.00;;;;342554;28;89693;-94
2022/12/21 00:15:36;;;;;;;4.00;0.80;;;14.30;99.90;14.40;99627.00;;;;343103;28;83265;-94
2022/12/21 00:15:59;;;;;;;3.70;0.73;;;14.30;99.90;14.40;99623.00;;;;343817;28;91411;-95
2022/12/21 00:16:16;;;;;;;2.60;0.60;;;14.30;99.90;14.40;99631.00;;;;342950;28;83803;-94
2022/12/21 00:16:32;;;;;;;2.72;0.60;;;14.30;99.90;14.40;99628.00;;;;343932;28;90021;-94
2022/12/21 00:16:44;;;;;;;2.40;0.40;;;14.30;99.90;14.50;99629.00;;;;344184;28;84646;-94
2022/12/21 00:16:56;;;;;;;2.33;0.40;;;14.30;99.90;14.50;99619.00;;;;341435;28;88941;-93
2022/12/21 00:17:08;;;;;;;2.05;0.40;;;14.30;99.90;14.40;99622.00;;;;343943;28;84367;-95
2022/12/21 00:17:20;;;;;;;2.88;0.70;;;14.20;99.90;14.40;99626.00;;;;341330;28;88614;-94
2022/12/21 00:17:32;;;;;;;4.60;0.70;;;14.20;99.90;14.50;99622.00;;;;340329;28;83418;-94
2022/12/21 00:17:43;;;;;;;4.97;1.15;;;14.30;99.90;14.40;99628.00;;;;345351;28;90707;-95
2022/12/21 00:17:56;;;;;;;4.57;1.23;;;14.20;99.90;14.40;99622.00;;;;342728;28;85382;-95
2022/12/21 00:18:08;;;;;;;3.60;0.60;;;14.30;99.90;14.40;99625.00;;;;344144;28;87920;-94
2022/12/21 00:18:20;;;;;;;8.35;1.33;;;14.30;99.90;14.50;99623.00;;;;341413;28;82524;-93
2022/12/21 00:18:33;;;;;;;7.50;1.27;;;14.30;99.90;14.50;99630.00;;;;344062;28;86832;-94
2022/12/21 00:18:45;;;;;;;6.20;1.02;;;14.30;99.90;14.60;99627.00;;;;343067;28;83330;-95
2022/12/21 00:18:57;;;;;;;2.97;0.65;;;14.30;99.90;14.50;99614.00;;;;341123;28;87664;-94
2022/12/21 00:19:13;;;;;;;3.17;1.17;;;14.30;99.90;14.40;99617.00;;;;342744;28;84116;-95
2022/12/21 00:19:25;;;;;;;3.50;1.30;;;14.30;99.90;14.50;99619.00;;;;342430;28;92178;-95
2022/12/21 00:19:37;;;;;;;2.53;0.63;;;14.20;99.90;14.50;99628.00;;;;344336;28;83317;-94
2022/12/21 00:19:49;;;;;;;2.55;0.60;;;14.20;99.90;14.40;99621.00;;;;341066;28;89557;-94
2022/12/21 00:20:01;;;;;;;2.90;0.60;;;14.30;99.90;14.50;99617.00;;;;343098;28;82526;-95
2022/12/21 00:20:13;;;;;;;2.42;0.50;;;14.30;99.90;14.40;99624.00;;;;342464;28;90833;-95
2022/12/21 00:20:25;;;;;;;2.80;0.50;;;14.20;99.90;14.40;99615.00;;;;342975;28;82588;-94
2022/12/21 00:20:37;;;;;;;2.92;0.60;;;14.30;99.90;14.40;99620.00;;;;344120;28;88440;-94
2022/12/21 00:21:15;;;;;;;2.65;0.80;;;14.30;99.90;14.40;99612.00;;;;344508;28;82361;-94
2022/12/21 00:21:30;;;;;;;5.50;0.93;;;14.30;99.90;14.40;99618.00;;;;342553;28;89931;-95
2022/12/21 00:21:42;;;;;;;4.65;0.90;;;14.20;99.90;14.50;99622.00;;;;344319;28;83501;-95
2022/12/21 00:21:54;;;;;;;2.78;0.70;;;14.30;99.90;14.30;99613.00;;;;342716;28;89128;-95
2022/12/21 00:22:06;;;;;;;2.33;0.60;;;14.20;99.90;14.40;99612.00;;;;343124;28;83326;-94
2022/12/21 00:22:18;;;;;;;2.25;0.60;;;14.20;99.90;14.40;99610.00;;;;342757;28;88363;-94
2022/12/21 00:22:30;;;;;;;2.70;0.63;;;14.20;99.90;14.40;99616.00;;;;343042;28;82263;-94
2022/12/21 00:22:42;;;;;;;3.30;0.60;;;14.20;99.90;14.40;99615.00;;;;342640;28;88385;-94
2022/12/21 00:22:54;;;;;;;3.70;0.68;;;14.20;99.90;14.50;99615.00;;;;341533;28;83397;-95
2022/12/21 00:23:06;;;;;;;2.33;0.63;;;14.20;99.90;14.40;99613.00;;;;342345;28;88375;-95
2022/12/21 00:23:18;;;;;;;2.80;0.75;;;14.20;99.90;14.40;99621.00;;;;343025;28;83095;-95
2022/12/21 00:23:30;;;;;;;3.30;0.73;;;14.20;99.90;14.30;99618.00;;;;341420;28;87382;-95
2022/12/21 00:23:43;;;;;;;3.05;0.85;;;14.20;99.90;14.50;99621.00;;;;341564;28;83506;-94
2022/12/21 00:23:59;;;;;;;3.13;0.77;;;14.20;99.90;14.50;99616.00;;;;342807;28;87443;-93
2022/12/21 00:24:11;;;;;;;5.28;0.77;;;14.20;99.90;14.40;99611.00;;;;342811;28;83752;-95
2022/12/21 00:24:23;;;;;;;6.53;1.10;;;14.30;99.90;14.50;99601.00;;;;342430;28;92554;-94
2022/12/21 00:24:34;;;;;;;4.93;1.10;;;14.20;99.90;14.50;99612.00;;;;342822;28;85303;-94
2022/12/21 00:24:46;;;;;;;7.60;1.10;;;14.30;99.90;14.50;99608.00;;;;341343;28;88616;-95
2022/12/21 00:24:58;;;;;;;6.45;0.80;;;14.20;99.90;14.50;99616.00;;;;341758;28;83409;-94
2022/12/21 00:25:10;;;;;;;6.20;0.90;;;14.20;99.90;14.60;99604.00;;;;341293;28;88257;-94
2022/12/21 00:25:22;;;;;;;4.53;0.88;;;14.30;99.90;14.40;99609.00;;;;341705;28;83272;-95
2022/12/21 00:25:34;;;;;;;5.25;0.73;;;14.20;99.90;14.50;99609.00;;;;342677;28;89327;-94
2022/12/21 00:25:46;;;;;;;3.45;0.50;;;14.30;99.90;14.50;99613.00;;;;344080;28;84540;-94
2022/12/21 00:25:59;;;;;;;4.53;0.65;;;14.30;99.90;14.40;99603.00;;;;341198;28;90912;-94
2022/12/21 00:26:12;;;;;;;4.22;0.80;;;14.30;99.90;14.40;99608.00;;;;343103;28;83332;-95
2022/12/21 00:26:27;;;;;;;3.00;0.70;;;14.30;99.90;14.40;99601.00;;;;341202;28;89824;-93
2022/12/21 00:26:39;;;;;;;2.60;0.70;;;14.30;99.90;14.50;99618.00;;;;341617;28;83372;-94
2022/12/21 00:26:51;;;;;;;2.80;0.65;;;14.30;99.90;14.50;99607.00;;;;343978;28;87770;-94
2022/12/21 00:27:03;;;;;;;4.63;1.10;;;14.20;99.90;14.50;99611.00;;;;342816;28;83993;-94
2022/12/21 00:27:15;;;;;;;7.05;1.10;;;14.30;99.90;14.40;99620.00;;;;342657;28;90124;-94
2022/12/21 00:27:27;;;;;;;5.15;0.70;;;14.30;99.90;14.40;99604.00;;;;344386;28;82518;-93
2022/12/21 00:27:39;;;;;;;3.75;0.55;;;14.20;99.90;14.40;99606.00;;;;345259;28;91033;-93
2022/12/21 00:27:50;;;;;;;2.75;0.80;;;14.20;99.90;14.40;99607.00;;;;344146;28;83465;-94
2022/12/21 00:28:02;;;;;;;3.38;0.80;;;14.30;99.90;14.40;99610.00;;;;343829;28;88810;-95
2022/12/21 00:28:14;;;;;;;3.22;0.63;;;14.20;99.90;14.40;99610.00;;;;342905;28;84486;-94
2022/12/21 00:28:26;;;;;;;3.35;0.60;;;14.20;99.90;14.50;99603.00;;;;341267;28;88970;-94
2022/12/21 00:28:38;;;;;;;2.40;0.50;;;14.30;99.90;14.50;99605.00;;;;343007;28;83647;-94
2022/12/21 00:28:53;;;;;;;3.10;0.54;;;14.20;99.90;14.50;99604.00;;;;341432;28;87397;-94
2022/12/21 00:29:05;;;;;;;4.00;0.80;;;14.30;99.90;14.50;99592.00;;;;347201;28;83342;-94
2022/12/21 00:29:17;;;;;;;4.32;1.00;;;14.30;99.90;14.50;99602.00;;;;344235;28;89855;-94
2022/12/21 00:29:29;;;;;;;3.30;0.68;;;14.30;99.90;14.40;99594.00;;;;344379;28;83434;-94
2022/12/21 00:29:41;;;;;;;3.40;0.70;;;14.30;99.90;14.40;99592.00;;;;342868;28;88185;-95
2022/12/21 00:29:53;;;;;;;2.90;0.50;;;14.20;99.90;14.50;99597.00;;;;341649;28;84682;-94
2022/12/21 00:30:06;;;;;;;2.05;0.45;;;14.30;99.90;14.40;99601.00;;;;341333;28;89841;-94
2022/12/21 00:30:18;;;;;;;2.47;0.50;;;14.30;99.90;14.50;99605.00;;;;344506;28;83370;-96
2022/12/21 00:30:30;;;;;;;2.10;0.47;;;14.30;99.90;14.40;99606.00;;;;339909;28;88939;-94
2022/12/21 00:30:42;;;;;;;2.67;0.50;;;14.30;99.90;14.50;99611.00;;;;341578;28;83494;-95
2022/12/21 00:30:54;;;;;;;5.30;0.60;;;14.20;99.90;14.50;99601.00;;;;344095;28;86825;-94
2022/12/21 00:31:17;;;;;;;5.45;0.73;;;14.20;99.90;14.50;99608.00;;;;344425;28;82659;-95
2022/12/21 00:31:32;;;;;;;2.92;0.70;;;14.20;99.90;14.50;99599.00;;;;342760;28;87389;-94
2022/12/21 00:31:44;;;;;;;3.67;0.70;;;14.30;99.90;14.50;99600.00;;;;341519;28;82455;-94
2022/12/21 00:31:57;;;;;;;4.75;1.10;;;14.20;99.90;14.40;99607.00;;;;340025;28;88642;-95
2022/12/21 00:32:09;;;;;;;4.30;1.10;;;14.30;99.90;14.50;99604.00;;;;344409;28;83355;-94
2022/12/21 00:32:21;;;;;;;2.20;0.60;;;14.30;99.90;14.50;99603.00;;;;342718;28;88640;-94
2022/12/21 00:32:33;;;;;;;2.63;0.70;;;14.30;99.90;14.50;99600.00;;;;342992;28;83378;-96
2022/12/21 00:32:44;;;;;;;2.67;0.60;;;14.30;99.90;14.40;99596.00;;;;343783;28;90841;-95
2022/12/21 00:32:57;;;;;;;2.50;0.68;;;14.30;99.90;14.40;99601.00;;;;345413;28;82553;-96
2022/12/21 00:33:08;;;;;;;2.47;0.75;;;14.20;99.90;14.50;99601.00;;;;345374;28;88445;-95
2022/12/21 00:33:21;;;;;;;3.30;0.73;;;14.20;99.90;14.40;99594.00;;;;344462;28;83393;-94
2022/12/21 00:33:33;;;;;;;4.45;0.80;;;14.20;99.90;14.50;99599.00;;;;342588;28;89614;-95
2022/12/21 00:33:45;;;;;;;4.28;0.70;;;14.30;99.90;14.60;99600.00;;;;341641;28;83514;-95
2022/12/21 00:33:57;;;;;;;3.56;0.60;;;14.30;99.90;14.40;99601.00;;;;341406;28;88726;-94
2022/12/21 00:34:17;;;;;;;2.22;0.55;;;14.30;99.90;14.50;99598.00;;;;341505;28;82495;-95
2022/12/21 00:34:29;;;;;;;3.90;0.80;;;14.30;99.90;14.50;99600.00;;;;339948;28;88962;-94
2022/12/21 00:34:41;;;;;;;3.70;0.63;;;14.30;99.90;14.50;99593.00;;;;341526;28;83480;-95
2022/12/21 00:34:53;;;;;;;1.83;0.40;;;14.30;99.90;14.50;99596.00;;;;342483;28;90867;-95
2022/12/21 00:35:05;;;;;;;2.00;0.45;;;14.20;99.90;14.50;99601.00;;;;341592;28;83416;-95
2022/12/21 00:35:17;;;;;;;3.92;0.40;;;14.30;99.90;14.50;99605.00;;;;342286;28;88674;-95
2022/12/21 00:35:29;;;;;;;5.45;0.55;;;14.20;99.90;14.60;99590.00;;;;343033;28;82393;-94
2022/12/21 00:35:49;;;;;;;5.07;0.73;;;14.30;99.90;14.60;99597.00;;;;342501;28;87482;-94
2022/12/21 00:36:01;;;;;;;4.22;0.88;;;14.30;99.90;14.60;99592.00;;;;340386;28;83394;-96
2022/12/21 00:36:15;;;;;;;3.78;1.05;;;14.30;99.90;14.60;99594.00;;;;345107;28;92671;-94
2022/12/21 00:36:27;;;;;;;3.10;0.90;;;14.30;99.90;14.60;99594.00;;;;344048;28;83432;-93
2022/12/21 00:36:40;;;;;;;3.80;1.20;;;14.30;99.90;14.60;99594.00;;;;342534;28;91667;-93
2022/12/21 00:36:51;;;;;;;3.30;1.20;;;14.30;99.90;14.50;99607.00;;;;343048;28;83428;-96
2022/12/21 00:37:04;;;;;;;2.70;0.50;;;14.30;99.90;14.50;99609.00;;;;342593;28;89629;-94
2022/12/21 00:37:15;;;;;;;2.30;0.50;;;14.30;99.90;14.50;99594.00;;;;343086;28;83207;-95
2022/12/21 00:37:27;;;;;;;3.10;0.70;;;14.30;99.90;14.50;99615.00;;;;343904;28;90140;-93
2022/12/21 00:37:39;;;;;;;3.22;0.77;;;14.30;99.90;14.50;99602.00;;;;341560;28;83731;-93
2022/12/21 00:37:51;;;;;;;4.38;0.70;;;14.30;99.90;14.50;99587.00;;;;342575;28;88957;-94
2022/12/21 00:38:03;;;;;;;3.33;0.50;;;14.30;99.90;14.50;99600.00;;;;341731;28;82700;-94
2022/12/21 00:38:16;;;;;;;5.05;0.82;;;14.30;99.90;14.40;99588.00;;;;342696;28;89452;-93
2022/12/21 00:38:27;;;;;;;4.78;0.82;;;14.30;99.90;14.40;99588.00;;;;344071;28;83722;-94
2022/12/21 00:38:39;;;;;;;4.22;0.70;;;14.20;99.90;14.50;99588.00;;;;344071;28;89365;-93
2022/12/21 00:38:51;;;;;;;2.85;0.50;;;14.30;99.90;14.50;99581.00;;;;341693;28;83405;-93
2022/12/21 00:39:03;;;;;;;5.13;0.52;;;14.30;99.90;14.50;99586.00;;;;341234;28;91001;-93
2022/12/21 00:39:16;;;;;;;5.90;0.70;;;14.20;99.90;14.50;99580.00;;;;340307;28;83423;-94
2022/12/21 00:39:28;;;;;;;6.03;0.80;;;14.20;99.90;14.50;99578.00;;;;342756;28;88541;-94
2022/12/21 00:39:40;;;;;;;4.50;0.60;;;14.30;99.90;14.50;99585.00;;;;343068;28;83381;-95
2022/12/21 00:39:51;;;;;;;2.70;0.52;;;14.30;99.90;14.60;99574.00;;;;343750;28;90914;-95
2022/12/21 00:40:04;;;;;;;3.42;0.63;;;14.30;99.90;14.50;99582.00;;;;344365;28;83703;-94
2022/12/21 00:40:16;;;;;;;3.55;0.90;;;14.30;99.90;14.60;99589.00;;;;342724;28;89036;-94
2022/12/21 00:40:28;;;;;;;3.75;0.80;;;14.20;99.90;14.50;99588.00;;;;344269;28;83428;-94
2022/12/21 00:40:40;;;;;;;4.32;0.77;;;14.30;99.90;14.50;99588.00;;;;342460;28;91873;-95
2022/12/21 00:40:59;;;;;;;4.57;1.17;;;14.30;99.90;14.50;99580.00;;;;343009;28;83498;-94
2022/12/21 00:41:12;;;;;;;5.55;1.38;;;14.30;99.90;14.60;99578.00;;;;342410;28;91050;-94
2022/12/21 00:41:26;;;;;;;3.92;0.80;;;14.30;99.90;14.50;99574.00;;;;344443;28;82628;-94
2022/12/21 00:41:38;;;;;;;3.55;1.15;;;14.30;99.90;14.50;99575.00;;;;342557;28;90961;-95
2022/12/21 00:41:50;;;;;;;3.75;1.13;;;14.30;99.90;14.40;99582.00;;;;344087;28;83486;-95
2022/12/21 00:42:01;;;;;;;2.90;0.60;;;14.30;99.90;14.30;99570.00;;;;342683;28;88647;-95
2022/12/21 00:42:14;;;;;;;4.15;0.60;;;14.30;99.90;14.40;99581.00;;;;342784;28;83488;-94
2022/12/21 00:42:30;;;;;;;5.04;0.50;;;14.30;99.90;14.50;99589.00;;;;341843;28;88919;-95
2022/12/21 00:42:50;;;;;;;3.42;0.47;;;14.30;99.90;14.50;99589.00;;;;344268;28;82518;-94
2022/12/21 00:43:41;;;;;;;2.42;0.77;;;14.30;99.90;14.50;99588.00;;;;339899;28;87436;-94
2022/12/21 00:43:59;;;;;;;2.95;1.08;;;14.20;99.90;14.30;99585.00;;;;337709;28;83180;-96
2022/12/21 00:44:51;;;;;;;4.18;0.70;;;14.30;99.90;14.50;99590.00;;;;338023;28;88704;-94
2022/12/21 00:45:22;;;;;;;3.03;0.75;;;14.30;99.90;14.40;99593.00;;;;341834;28;82153;-94
2022/12/21 00:45:42;;;;;;;3.83;0.38;;;14.20;99.90;14.40;99586.00;;;;341379;28;87694;-93
2022/12/21 00:58:12;;;;;;;3.45;0.69;;;14.20;99.90;14.30;99587.00;;;;2936360;22;15433657;-92
2022/12/21 00:58:53;;;;;;;4.35;0.70;;;14.10;99.90;14.30;99575.00;;;;434520;22;85331;-94
2022/12/21 00:59:49;;;;;;;4.47;0.60;;;14.10;99.90;14.30;99578.00;;;;432708;22;83490;-94
2022/12/21 01:00:33;;;;;;;3.30;0.60;;;14.10;99.90;14.40;99579.00;;;;433596;22;84784;-95
2022/12/21 01:01:25;;;;;;;7.45;0.90;;;14.10;99.90;14.30;99574.00;;;;435088;22;82037;-95
2022/12/21 01:02:19;;;;;;;6.28;0.90;;;14.10;99.90;14.10;99590.00;;;;427206;22;83870;-94
2022/12/21 01:03:03;;;;;;;4.82;0.90;;;14.10;99.90;14.20;99581.00;;;;421712;23;82702;-94
2022/12/21 01:03:34;;;;;;;4.10;0.80;;;14.00;99.90;14.20;99578.00;;;;423429;22;83353;-95
2022/12/21 01:03:55;;;;;;;5.70;0.80;;;14.10;99.90;14.20;99583.00;;;;424474;23;82389;-93
2022/12/21 01:04:44;;;;;;;4.90;0.90;;;14.00;99.90;14.30;99580.00;;;;422474;23;83479;-95
2022/12/21 01:05:37;;;;;;;3.85;0.70;;;14.10;99.90;14.40;99579.00;;;;422527;23;81578;-94
2022/12/21 01:06:23;;;;;;;4.05;0.85;;;14.10;99.90;14.30;99579.00;;;;425275;22;83275;-94
2022/12/21 01:07:15;;;;;;;3.03;0.90;;;14.10;99.90;14.40;99594.00;;;;424238;23;81766;-96
2022/12/21 01:07:53;;;;;;;6.35;1.20;;;14.10;99.90;14.40;99584.00;;;;422005;23;83651;-95
2022/12/21 01:08:30;;;;;;;3.30;1.10;;;14.10;99.90;14.40;99580.00;;;;422496;23;81697;-95
2022/12/21 01:08:58;;;;;;;3.92;0.85;;;14.10;99.90;14.30;99585.00;;;;417578;23;87409;-96
2022/12/21 01:09:15;;;;;;;5.13;0.55;;;14.10;99.90;14.40;99577.00;;;;417537;23;83071;-95
2022/12/21 01:09:32;;;;;;;4.45;0.80;;;14.10;99.90;14.40;99581.00;;;;417644;23;83251;-95
2022/12/21 01:09:46;;;;;;;1.95;0.70;;;14.10;99.90;14.20;99577.00;;;;423710;23;82365;-95
2022/12/21 01:09:58;;;;;;;3.05;0.75;;;14.10;99.90;14.20;99568.00;;;;423885;22;85471;-94
2022/12/21 01:10:10;;;;;;;3.80;1.10;;;14.10;99.90;14.20;99582.00;;;;421485;23;81094;-95
2022/12/21 01:10:22;;;;;;;3.00;0.90;;;14.10;99.90;14.20;99572.00;;;;418441;23;85677;-94
2022/12/21 01:10:35;;;;;;;2.65;0.50;;;14.00;99.90;14.20;99576.00;;;;422296;23;84833;-96
2022/12/21 01:11:02;;;;;;;4.25;0.70;;;14.10;99.90;14.20;99587.00;;;;417197;23;86923;-96
2022/12/21 01:11:15;;;;;;;4.32;0.80;;;14.10;99.90;14.40;99579.00;;;;421411;23;82470;-96
2022/12/21 01:11:28;;;;;;;2.47;0.70;;;14.00;99.90;14.30;99578.00;;;;416311;23;88736;-96
2022/12/21 01:11:40;;;;;;;2.92;0.60;;;14.10;99.90;14.30;99579.00;;;;419404;23;82875;-95
2022/12/21 01:11:52;;;;;;;3.22;0.75;;;14.10;99.90;14.40;99580.00;;;;422522;23;88272;-95
2022/12/21 01:12:04;;;;;;;7.43;0.90;;;14.10;99.90;14.30;99570.00;;;;415153;23;81941;-96
2022/12/21 01:12:16;;;;;;;7.28;0.85;;;14.10;99.90;14.40;99570.00;;;;418418;23;87378;-95
2022/12/21 01:12:27;;;;;;;6.18;0.70;;;14.10;99.90;14.30;99572.00;;;;417065;23;82454;-96
2022/12/21 01:12:39;;;;;;;3.28;0.68;;;14.10;99.90;14.10;99571.00;;;;419148;23;84921;-96
2022/12/21 01:12:51;;;;;;;2.95;0.60;;;14.10;99.90;14.20;99569.00;;;;418821;23;80367;-96
2022/12/21 01:13:06;;;;;;;1.85;0.80;;;14.00;99.90;14.20;99572.00;;;;417474;23;85910;-95
2022/12/21 01:13:25;;;;;;;4.05;1.00;;;14.10;99.90;14.40;99577.00;;;;421904;23;81428;-95
2022/12/21 01:13:49;;;;;;;3.53;1.05;;;14.10;99.90;14.40;99576.00;;;;418819;23;88750;-95
2022/12/21 01:14:01;;;;;;;3.40;0.85;;;14.10;99.90;14.30;99570.00;;;;418946;23;82921;-95
2022/12/21 01:14:15;;;;;;;4.95;1.05;;;14.10;99.90;14.30;99569.00;;;;420872;23;85866;-96
2022/12/21 01:14:28;;;;;;;4.90;1.00;;;14.10;99.90;14.40;99578.00;;;;418970;23;84395;-96
2022/12/21 01:14:43;;;;;;;2.90;0.82;;;14.10;99.90;14.40;99581.00;;;;420072;23;83919;-95
2022/12/21 01:15:08;;;;;;;3.35;1.20;;;14.10;99.90;14.40;99583.00;;;;416847;23;81813;-96
2022/12/21 01:15:20;;;;;;;3.10;0.90;;;14.10;99.90;14.30;99567.00;;;;412931;23;84224;-95
2022/12/21 01:15:32;;;;;;;2.28;0.50;;;14.10;99.90;14.40;99574.00;;;;421833;23;82468;-96
2022/12/21 01:15:45;;;;;;;3.70;0.70;;;14.10;99.90;14.40;99570.00;;;;420779;23;84947;-95
2022/12/21 01:15:58;;;;;;;4.97;1.10;;;14.10;99.90;14.40;99566.00;;;;417062;23;84334;-96
2022/12/21 01:16:22;;;;;;;6.30;1.30;;;14.10;99.90;14.40;99568.00;;;;422828;23;85926;-96
2022/12/21 01:16:34;;;;;;;2.75;0.65;;;14.10;99.90;14.50;99569.00;;;;417272;23;80739;-96
2022/12/21 01:16:46;;;;;;;2.30;0.70;;;14.10;99.90;14.40;99568.00;;;;420475;23;87772;-95
2022/12/21 01:16:58;;;;;;;2.48;0.60;;;14.10;99.90;14.40;99566.00;;;;422865;23;85248;-95
2022/12/21 01:17:10;;;;;;;3.17;0.65;;;14.20;99.90;14.40;99570.00;;;;419092;23;83934;-96
2022/12/21 01:17:22;;;;;;;3.00;0.80;;;14.10;99.90;14.30;99570.00;;;;417017;23;81258;-95
2022/12/21 01:17:34;;;;;;;4.45;1.30;;;14.10;99.90;14.50;99565.00;;;;416666;23;85905;-96
2022/12/21 01:17:47;;;;;;;5.60;1.52;;;14.10;99.90;14.50;99575.00;;;;417287;23;84284;-95
2022/12/21 01:17:59;;;;;;;5.97;1.40;;;14.20;99.90;14.30;99566.00;;;;419413;23;85761;-95
2022/12/21 01:18:12;;;;;;;5.95;1.13;;;14.20;99.90;14.30;99567.00;;;;419485;23;81479;-95
2022/12/21 01:18:24;;;;;;;5.65;1.17;;;14.20;99.90;14.50;99578.00;;;;421335;23;82991;-96
2022/12/21 01:18:36;;;;;;;4.60;1.15;;;14.20;99.90;14.40;99579.00;;;;423539;23;82667;-95
2022/12/21 01:18:48;;;;;;;5.47;0.90;;;14.20;99.90;14.50;99572.00;;;;422981;23;85773;-96
2022/12/21 01:19:02;;;;;;;7.63;0.80;;;14.20;99.90;14.40;99568.00;;;;418977;23;82835;-94
2022/12/21 01:19:15;;;;;;;6.55;0.60;;;14.20;99.90;14.30;99570.00;;;;419874;23;86436;-95
2022/12/21 01:19:41;;;;;;;5.57;0.95;;;14.20;99.90;14.40;99570.00;;;;416802;23;83885;-96
2022/12/21 01:19:53;;;;;;;4.80;0.73;;;14.20;99.90;14.30;99575.00;;;;421399;23;84499;-94
2022/12/21 01:20:06;;;;;;;3.08;0.50;;;14.20;99.90;14.30;99572.00;;;;417136;23;80754;-96
2022/12/21 01:20:24;;;;;;;2.70;0.60;;;14.20;99.90;14.40;99576.00;;;;419707;23;83980;-95
2022/12/21 01:20:41;;;;;;;2.50;0.60;;;14.20;99.90;14.20;99571.00;;;;415668;23;80184;-96